Time;durP1;ratioP1;P1;durP2;ratioP2;P2;SDS_P1;SDS_P2;PMS_P1;PMS_P2;Temp;Humidity;BMP_temperature;BMP_pressure;BME280_temperature;BME280_humidity;BME280_pressure;Samples;Min_cycle;Max_cycle;Signal;HPM_P1;HPM_P2
2022/05/27 00:00:44;;;;;;;;;;;16.60;72.60;;;;;;5116603;28;19904;-75
2022/05/27 00:03:10;;;;;;;;;;;16.60;72.70;;;;;;5116618;28;20008;-75
2022/05/27 00:05:35;;;;;;;;;;;16.60;72.60;;;;;;5116616;28;19912;-76
2022/05/27 00:08:01;;;;;;;;;;;16.60;72.70;;;;;;5116417;28;19912;-76
2022/05/27 00:10:26;;;;;;;;;;;16.60;73.00;;;;;;5115483;28;19915;-76
2022/05/27 00:12:52;;;;;;;;;;;16.60;73.10;;;;;;5116369;28;19915;-75
2022/05/27 00:15:19;;;;;;;;;;;16.60;73.00;;;;;;5116343;28;19958;-75
2022/05/27 00:17:45;;;;;;;;;;;16.60;73.10;;;;;;5116391;28;19908;-76
2022/05/27 00:20:11;;;;;;;;;;;16.60;73.40;;;;;;5116280;28;19954;-75
2022/05/27 00:22:36;;;;;;;;;;;16.60;73.40;;;;;;5116225;28;19946;-76
2022/05/27 00:25:02;;;;;;;;;;;16.60;73.40;;;;;;5116184;28;19908;-75
2022/05/27 00:27:28;;;;;;;;;;;16.60;73.20;;;;;;5115445;28;19919;-76
2022/05/27 00:29:53;;;;;;;;;;;16.60;73.20;;;;;;5115756;28;19920;-76
2022/05/27 00:32:19;;;;;;;;;;;16.60;73.30;;;;;;5116000;28;19919;-76
2022/05/27 00:34:45;;;;;;;;;;;16.50;73.40;;;;;;5116102;28;19925;-75
2022/05/27 00:37:10;;;;;;;;;;;16.50;73.40;;;;;;5115965;28;19946;-75
2022/05/27 00:39:38;;;;;;;;;;;16.60;73.50;;;;;;5115870;28;19909;-76
2022/05/27 00:42:03;;;;;;;;;;;16.60;73.40;;;;;;5115867;28;19910;-76
2022/05/27 00:44:29;;;;;;;;;;;16.60;73.40;;;;;;5115775;28;19908;-75
2022/05/27 00:46:57;;;;;;;;;;;16.60;73.40;;;;;;5115651;28;19912;-75
2022/05/27 00:49:24;;;;;;;;;;;16.60;73.50;;;;;;5115737;28;19911;-76
2022/05/27 00:51:53;;;;;;;;;;;16.60;73.40;;;;;;5115667;28;19940;-75
2022/05/27 00:54:20;;;;;;;;;;;16.60;73.50;;;;;;5115665;28;19904;-76
2022/05/27 00:56:50;;;;;;;;;;;16.60;73.80;;;;;;5115573;28;19975;-76
2022/05/27 00:59:21;;;;;;;;;;;16.60;74.30;;;;;;5115557;28;19935;-76
2022/05/27 01:01:47;;;;;;;;;;;16.60;74.20;;;;;;5115432;28;19904;-76
2022/05/27 01:04:12;;;;;;;;;;;16.60;74.40;;;;;;5115474;28;19971;-76
2022/05/27 01:06:38;;;;;;;;;;;16.60;74.40;;;;;;5115286;28;20347;-76
2022/05/27 01:09:04;;;;;;;;;;;16.50;74.40;;;;;;5115249;28;20002;-76
2022/05/27 01:11:39;;;;;;;;;;;16.50;76.00;;;;;;5115378;28;19929;-75
2022/05/27 01:14:04;;;;;;;;;;;16.40;76.70;;;;;;5115237;28;19903;-75
2022/05/27 01:16:41;;;;;;;;;;;16.30;77.60;;;;;;5115170;28;19939;-75
2022/05/27 01:22:03;;;;;;;;;;;16.30;79.10;;;;;;5115301;28;19926;-76
2022/05/27 01:24:29;;;;;;;;;;;16.20;79.50;;;;;;5114996;28;19955;-75
2022/05/27 01:26:57;;;;;;;;;;;16.10;80.30;;;;;;5114845;28;19915;-75
2022/05/27 01:29:32;;;;;;;;;;;16.10;80.30;;;;;;5114662;28;19979;-75
2022/05/27 01:32:01;;;;;;;;;;;16.10;80.60;;;;;;5113880;28;19904;-75
2022/05/27 01:34:39;;;;;;;;;;;16.10;80.00;;;;;;5114810;28;19963;-75
2022/05/27 01:37:09;;;;;;;;;;;16.00;80.80;;;;;;5114959;28;19926;-75
2022/05/27 01:39:34;;;;;;;;;;;16.00;81.30;;;;;;5113843;28;19911;-75
2022/05/27 01:42:12;;;;;;;;;;;16.00;82.10;;;;;;5114636;28;19904;-76
2022/05/27 01:44:53;;;;;;;;;;;15.90;82.70;;;;;;5114760;28;19908;-75
2022/05/27 01:47:22;;;;;;;;;;;15.80;83.00;;;;;;5114688;28;19912;-76
2022/05/27 01:49:49;;;;;;;;;;;15.80;83.10;;;;;;5114582;28;19904;-76
2022/05/27 01:52:19;;;;;;;;;;;15.70;84.20;;;;;;5114542;28;19904;-76
2022/05/27 01:54:53;;;;;;;;;;;15.70;83.70;;;;;;5114442;28;19904;-76
2022/05/27 01:57:41;;;;;;;;;;;15.70;84.40;;;;;;5114406;28;19908;-75
2022/05/27 02:00:08;;;;;;;;;;;15.70;85.10;;;;;;5114468;28;19904;-76
2022/05/27 02:02:36;;;;;;;;;;;15.70;84.60;;;;;;5114305;28;19904;-76
2022/05/27 02:05:06;;;;;;;;;;;15.70;84.40;;;;;;5114329;28;19918;-76
2022/05/27 02:07:37;;;;;;;;;;;15.80;84.10;;;;;;5114060;28;20351;-75
2022/05/27 02:10:09;;;;;;;;;;;15.90;84.20;;;;;;5113146;28;19915;-76
2022/05/27 02:12:47;;;;;;;;;;;15.90;84.40;;;;;;5114181;28;19904;-75
2022/05/27 02:15:20;;;;;;;;;;;16.00;83.50;;;;;;5114137;28;19904;-75
2022/05/27 02:17:55;;;;;;;;;;;16.00;83.10;;;;;;5114118;28;19975;-76
2022/05/27 02:20:24;;;;;;;;;;;16.00;83.10;;;;;;5114131;28;19904;-76
2022/05/27 02:22:54;;;;;;;;;;;16.00;82.50;;;;;;5114053;28;19915;-75
2022/05/27 02:25:22;;;;;;;;;;;15.90;82.30;;;;;;5114006;28;19907;-76
2022/05/27 02:28:01;;;;;;;;;;;15.90;82.10;;;;;;5113838;28;19958;-75
2022/05/27 02:30:29;;;;;;;;;;;15.90;82.00;;;;;;5113771;28;19979;-76
2022/05/27 02:35:49;;;;;;;;;;;15.90;82.10;;;;;;5114125;28;20404;-76
2022/05/27 02:38:15;;;;;;;;;;;16.00;81.80;;;;;;5113845;28;19971;-76
2022/05/27 02:41:07;;;;;;;;;;;16.00;81.80;;;;;;5113788;28;19911;-76
2022/05/27 02:43:51;;;;;;;;;;;16.00;82.20;;;;;;5113974;28;19904;-75
2022/05/27 02:46:23;;;;;;;;;;;15.90;82.90;;;;;;5113699;28;20240;-76
2022/05/27 02:48:55;;;;;;;;;;;15.80;82.50;;;;;;5113868;28;19908;-76
2022/05/27 02:51:21;;;;;;;;;;;15.80;82.50;;;;;;5116973;28;19904;-75
2022/05/27 02:53:55;;;;;;;;;;;15.70;83.10;;;;;;5117936;28;19971;-75
2022/05/27 02:56:25;;;;;;;;;;;15.60;83.60;;;;;;5117985;28;19904;-76
2022/05/27 02:58:52;;;;;;;;;;;15.60;84.00;;;;;;5117872;28;19911;-75
2022/05/27 03:01:18;;;;;;;;;;;15.50;84.00;;;;;;5117761;28;19911;-75
2022/05/27 03:03:43;;;;;;;;;;;15.50;83.70;;;;;;5117682;28;19931;-76
2022/05/27 03:06:20;;;;;;;;;;;15.50;83.50;;;;;;5117659;28;19954;-75
2022/05/27 03:08:46;;;;;;;;;;;15.40;84.30;;;;;;5117817;28;19915;-75
2022/05/27 03:11:34;;;;;;;;;;;15.40;83.80;;;;;;5117576;28;19904;-75
2022/05/27 03:14:08;;;;;;;;;;;15.40;84.00;;;;;;5117605;28;19915;-75
2022/05/27 03:16:52;;;;;;;;;;;15.40;83.70;;;;;;5117604;28;19998;-75
2022/05/27 03:19:17;;;;;;;;;;;15.30;84.50;;;;;;5117456;28;19904;-75
2022/05/27 03:21:49;;;;;;;;;;;15.30;84.40;;;;;;5117372;28;19954;-75
2022/05/27 03:24:33;;;;;;;;;;;15.30;84.80;;;;;;5117348;28;19904;-75
2022/05/27 03:27:07;;;;;;;;;;;15.30;84.50;;;;;;5117210;28;20302;-75
2022/05/27 03:29:37;;;;;;;;;;;15.30;84.50;;;;;;5117091;28;19932;-76
2022/05/27 03:32:17;;;;;;;;;;;15.20;85.00;;;;;;5117197;28;19904;-76
2022/05/27 03:34:43;;;;;;;;;;;15.20;85.60;;;;;;5117221;28;19904;-76
2022/05/27 03:37:10;;;;;;;;;;;15.20;84.80;;;;;;5117097;28;20330;-76
2022/05/27 03:39:36;;;;;;;;;;;15.20;85.10;;;;;;5116934;28;19926;-75
2022/05/27 03:42:03;;;;;;;;;;;15.20;85.00;;;;;;5117028;28;19904;-75
2022/05/27 03:44:29;;;;;;;;;;;15.10;85.60;;;;;;5116915;28;19915;-75
2022/05/27 03:46:56;;;;;;;;;;;15.10;85.10;;;;;;5116800;28;19908;-75
2022/05/27 03:49:21;;;;;;;;;;;15.20;84.90;;;;;;5117025;28;19967;-75
2022/05/27 03:51:50;;;;;;;;;;;15.20;84.70;;;;;;5116829;28;19915;-75
2022/05/27 03:54:15;;;;;;;;;;;15.10;85.30;;;;;;5116905;28;19903;-76
2022/05/27 03:56:42;;;;;;;;;;;15.10;85.70;;;;;;5116721;28;19919;-75
2022/05/27 03:59:11;;;;;;;;;;;15.20;85.10;;;;;;5116709;28;19904;-75
2022/05/27 04:01:38;;;;;;;;;;;15.20;85.10;;;;;;5115468;28;19911;-75
2022/05/27 04:04:04;;;;;;;;;;;15.20;85.40;;;;;;5116621;28;19904;-75
2022/05/27 04:06:30;;;;;;;;;;;15.20;85.10;;;;;;5116494;28;19947;-75
2022/05/27 04:08:57;;;;;;;;;;;15.20;84.90;;;;;;5116418;28;19912;-76
2022/05/27 04:11:23;;;;;;;;;;;15.20;85.10;;;;;;5116507;28;19910;-75
2022/05/27 04:13:48;;;;;;;;;;;15.20;85.60;;;;;;5116438;28;19904;-75
2022/05/27 04:16:15;;;;;;;;;;;15.10;86.20;;;;;;5115286;28;19908;-75
2022/05/27 04:18:40;;;;;;;;;;;15.20;85.40;;;;;;5116369;28;20339;-75
2022/05/27 04:21:06;;;;;;;;;;;15.20;85.50;;;;;;5115273;28;19930;-76
2022/05/27 04:23:31;;;;;;;;;;;15.30;86.00;;;;;;5116197;28;19908;-76
2022/05/27 04:25:57;;;;;;;;;;;15.20;85.10;;;;;;5116200;28;19904;-75
2022/05/27 04:28:22;;;;;;;;;;;15.30;85.20;;;;;;5115793;28;19912;-74
2022/05/27 04:30:48;;;;;;;;;;;15.30;85.20;;;;;;5116050;28;19908;-76
2022/05/27 04:33:13;;;;;;;;;;;15.30;86.00;;;;;;5116068;28;19904;-75
2022/05/27 04:35:39;;;;;;;;;;;15.20;85.90;;;;;;5115958;28;19939;-75
2022/05/27 04:38:05;;;;;;;;;;;15.20;86.20;;;;;;5115946;28;19972;-76
2022/05/27 04:40:31;;;;;;;;;;;15.20;87.10;;;;;;5115920;28;19904;-76
2022/05/27 04:42:57;;;;;;;;;;;15.10;87.30;;;;;;5115877;28;19904;-75
2022/05/27 04:45:24;;;;;;;;;;;15.20;86.70;;;;;;5115941;28;19908;-75
2022/05/27 04:47:49;;;;;;;;;;;15.20;86.20;;;;;;5115758;28;19936;-75
2022/05/27 04:50:17;;;;;;;;;;;15.20;86.50;;;;;;5115727;28;19904;-75
2022/05/27 04:52:42;;;;;;;;;;;15.20;86.10;;;;;;5115679;28;19904;-75
2022/05/27 04:55:09;;;;;;;;;;;15.20;86.50;;;;;;5115568;28;19934;-76
2022/05/27 04:57:46;;;;;;;;;;;15.30;85.90;;;;;;5115545;28;19904;-75
2022/05/27 05:00:12;;;;;;;;;;;15.30;86.70;;;;;;5114571;28;19971;-75
2022/05/27 05:02:38;;;;;;;;;;;15.30;86.10;;;;;;5115448;28;19911;-76
2022/05/27 05:05:03;;;;;;;;;;;15.40;86.20;;;;;;5115544;28;20271;-75
2022/05/27 05:07:29;;;;;;;;;;;15.40;86.50;;;;;;5115317;28;19919;-76
2022/05/27 05:09:54;;;;;;;;;;;15.50;85.90;;;;;;5115425;28;19904;-76
2022/05/27 05:12:22;;;;;;;;;;;15.50;86.40;;;;;;5115182;28;19904;-76
2022/05/27 05:14:48;;;;;;;;;;;15.50;85.80;;;;;;5115093;28;19910;-76
2022/05/27 05:17:14;;;;;;;;;;;15.50;86.40;;;;;;5115160;28;20003;-76
2022/05/27 05:19:39;;;;;;;;;;;15.50;87.10;;;;;;5114178;28;19912;-76
2022/05/27 05:22:05;;;;;;;;;;;15.50;87.20;;;;;;5115094;28;19939;-75
2022/05/27 05:24:30;;;;;;;;;;;15.50;86.80;;;;;;5115002;28;19920;-76
2022/05/27 05:26:56;;;;;;;;;;;15.60;86.80;;;;;;5114945;28;19908;-75
2022/05/27 05:29:21;;;;;;;;;;;15.60;87.30;;;;;;5114698;28;20030;-75
2022/05/27 05:31:47;;;;;;;;;;;15.60;86.70;;;;;;5114887;28;19975;-76
2022/05/27 05:34:12;;;;;;;;;;;15.60;87.30;;;;;;5114849;28;19907;-76
2022/05/27 05:36:38;;;;;;;;;;;15.70;86.40;;;;;;5114831;28;19915;-76
2022/05/27 05:39:04;;;;;;;;;;;15.70;86.40;;;;;;5114737;28;19908;-76
2022/05/27 05:41:30;;;;;;;;;;;15.70;86.10;;;;;;5114722;28;19930;-76
2022/05/27 05:43:56;;;;;;;;;;;15.80;86.30;;;;;;5114678;28;19903;-76
2022/05/27 05:46:23;;;;;;;;;;;15.90;86.20;;;;;;5114577;28;19904;-77
2022/05/27 05:48:48;;;;;;;;;;;15.90;86.30;;;;;;5114593;28;19911;-76
2022/05/27 05:51:14;;;;;;;;;;;15.90;86.00;;;;;;5114555;28;19908;-76
2022/05/27 05:53:39;;;;;;;;;;;15.90;85.80;;;;;;5114533;28;19912;-76
2022/05/27 05:56:05;;;;;;;;;;;15.90;85.60;;;;;;5114462;28;19939;-76
2022/05/27 05:58:31;;;;;;;;;;;16.00;85.60;;;;;;5114443;28;19908;-76
2022/05/27 06:00:56;;;;;;;;;;;16.00;85.60;;;;;;5114412;28;19904;-77
2022/05/27 06:03:22;;;;;;;;;;;16.10;85.40;;;;;;5114411;28;19911;-76
2022/05/27 06:05:48;;;;;;;;;;;16.20;85.40;;;;;;5114303;28;19908;-76
2022/05/27 06:08:15;;;;;;;;;;;16.20;85.30;;;;;;5113101;28;19908;-76
2022/05/27 06:10:40;;;;;;;;;;;16.20;85.30;;;;;;5114232;28;19904;-76
2022/05/27 06:13:06;;;;;;;;;;;16.30;85.00;;;;;;5114196;28;19914;-76
2022/05/27 06:15:32;;;;;;;;;;;16.20;84.30;;;;;;5114135;28;19908;-76
2022/05/27 06:17:59;;;;;;;;;;;16.30;84.20;;;;;;5114293;28;19971;-76
2022/05/27 06:20:28;;;;;;;;;;;16.30;84.10;;;;;;5114109;28;19954;-76
2022/05/27 06:22:53;;;;;;;;;;;16.30;84.00;;;;;;5114197;28;19908;-76
2022/05/27 06:25:19;;;;;;;;;;;16.40;83.80;;;;;;5113393;28;19979;-76
2022/05/27 06:27:44;;;;;;;;;;;16.40;83.60;;;;;;5113852;28;19922;-76
2022/05/27 06:35:40;;;;;;;;;;;16.50;82.70;;;;;;5114137;28;19920;-76
2022/05/27 06:38:06;;;;;;;;;;;16.50;82.20;;;;;;5113865;28;19904;-76
2022/05/27 06:40:32;;;;;;;;;;;16.50;81.50;;;;;;5113877;28;19915;-76
2022/05/27 06:42:57;;;;;;;;;;;16.50;80.80;;;;;;5113816;28;19904;-76
2022/05/27 06:45:23;;;;;;;;;;;16.50;80.00;;;;;;5113761;28;19967;-76
2022/05/27 06:47:49;;;;;;;;;;;16.50;80.20;;;;;;5113779;28;19912;-76
2022/05/27 06:50:14;;;;;;;;;;;16.50;80.20;;;;;;5113773;28;19957;-76
2022/05/27 06:52:41;;;;;;;;;;;16.50;79.70;;;;;;5113708;28;19915;-76
2022/05/27 06:55:08;;;;;;;;;;;16.50;79.80;;;;;;5113740;28;19908;-76
2022/05/27 06:57:34;;;;;;;;;;;16.50;78.80;;;;;;5113743;28;19935;-76
2022/05/27 07:00:00;;;;;;;;;;;16.60;78.40;;;;;;5113636;28;19915;-76
2022/05/27 07:02:26;;;;;;;;;;;16.50;77.50;;;;;;5113620;28;19908;-76
2022/05/27 07:04:51;;;;;;;;;;;16.60;76.00;;;;;;5113647;28;19903;-75
2022/05/27 07:07:17;;;;;;;;;;;16.60;74.90;;;;;;5113536;28;19911;-76
2022/05/27 07:09:42;;;;;;;;;;;16.60;74.00;;;;;;5113661;28;20309;-76
2022/05/27 07:12:09;;;;;;;;;;;16.60;74.40;;;;;;5113574;28;19908;-76
2022/05/27 07:14:36;;;;;;;;;;;16.60;72.60;;;;;;5113563;28;19908;-75
2022/05/27 07:17:02;;;;;;;;;;;16.60;73.10;;;;;;5113530;28;19904;-75
2022/05/27 07:19:28;;;;;;;;;;;16.60;73.50;;;;;;5112401;28;19919;-76
2022/05/27 07:21:56;;;;;;;;;;;16.70;72.20;;;;;;5113568;28;20259;-75
2022/05/27 07:24:21;;;;;;;;;;;16.70;69.30;;;;;;5113425;28;19912;-76
2022/05/27 07:26:47;;;;;;;;;;;16.70;69.10;;;;;;5113513;28;19912;-76
2022/05/27 07:29:13;;;;;;;;;;;16.70;69.50;;;;;;5113066;28;19915;-76
2022/05/27 07:31:39;;;;;;;;;;;16.80;70.90;;;;;;5113412;28;19967;-76
2022/05/27 07:34:05;;;;;;;;;;;16.90;70.80;;;;;;5113255;28;19914;-75
2022/05/27 07:36:30;;;;;;;;;;;16.90;68.50;;;;;;5114918;28;20351;-76
2022/05/27 07:38:56;;;;;;;;;;;16.90;66.00;;;;;;5117086;28;19919;-76
2022/05/27 07:41:22;;;;;;;;;;;16.90;66.70;;;;;;5117069;28;19908;-76
2022/05/27 07:43:48;;;;;;;;;;;17.00;66.80;;;;;;5117017;28;19904;-76
2022/05/27 07:46:15;;;;;;;;;;;17.00;64.30;;;;;;5116998;28;19904;-76
2022/05/27 07:48:42;;;;;;;;;;;17.00;64.50;;;;;;5116918;28;19930;-76
2022/05/27 07:51:07;;;;;;;;;;;17.00;63.30;;;;;;5116920;28;19908;-76
2022/05/27 07:53:34;;;;;;;;;;;17.00;63.30;;;;;;5116821;28;19971;-75
2022/05/27 07:56:02;;;;;;;;;;;17.00;61.80;;;;;;5116825;28;19912;-76
2022/05/27 07:58:27;;;;;;;;;;;16.90;62.30;;;;;;5116815;28;19911;-75
2022/05/27 08:00:53;;;;;;;;;;;17.00;62.70;;;;;;5116686;28;20332;-76
2022/05/27 08:03:19;;;;;;;;;;;17.00;61.60;;;;;;5116625;28;19904;-76
2022/05/27 08:05:44;;;;;;;;;;;17.10;61.00;;;;;;5116630;28;19908;-76
2022/05/27 08:08:10;;;;;;;;;;;17.10;60.80;;;;;;5116499;28;19976;-75
2022/05/27 08:10:36;;;;;;;;;;;17.10;59.70;;;;;;5116480;28;20375;-76
2022/05/27 08:13:02;;;;;;;;;;;17.10;60.20;;;;;;5116439;28;20065;-76
2022/05/27 08:15:28;;;;;;;;;;;17.10;60.00;;;;;;5116423;28;19908;-76
2022/05/27 08:17:54;;;;;;;;;;;17.10;60.60;;;;;;5116377;28;19979;-76
2022/05/27 08:20:22;;;;;;;;;;;17.00;60.20;;;;;;5116326;28;19908;-75
2022/05/27 08:22:48;;;;;;;;;;;17.10;61.40;;;;;;5116316;28;19903;-76
2022/05/27 08:28:17;;;;;;;10.55;2.05;;;17.40;61.40;;;;;;5131423;27;20481;-76
2022/05/27 08:30:43;;;;;;;5.55;1.63;;;17.40;61.30;;;;;;5131238;28;20044;-74
2022/05/27 08:33:08;;;;;;;9.32;2.63;;;17.50;60.90;;;;;;5131236;28;20032;-75
2022/05/27 08:38:26;;;;;;;6.63;2.17;;;17.80;61.80;;;;;;5131361;28;20091;-75
2022/05/27 08:40:52;;;;;;;8.23;1.90;;;17.80;60.70;;;;;;5130170;28;20012;-75
2022/05/27 08:43:32;;;;;;;6.85;2.00;;;17.70;59.60;;;;;;5131002;28;20031;-74
2022/05/27 08:46:17;;;;;;;7.53;2.30;;;17.80;60.90;;;;;;5131049;28;20032;-74
2022/05/27 08:48:46;;;;;;;8.38;2.30;;;17.80;59.40;;;;;;5130952;28;20027;-74
2022/05/27 08:51:35;;;;;;;5.95;2.08;;;17.70;58.20;;;;;;5130827;28;20016;-75
2022/05/27 08:54:15;;;;;;;9.40;2.30;;;17.70;58.00;;;;;;5130973;28;20024;-74
2022/05/27 08:59:49;;;;;;;8.50;2.03;;;17.70;56.90;;;;;;5130952;28;20031;-74
2022/05/27 09:02:31;;;;;;;7.60;2.00;;;17.80;56.70;;;;;;5130722;28;20031;-74
2022/05/27 09:05:14;;;;;;;8.32;2.03;;;17.80;57.70;;;;;;5130709;28;20028;-74
2022/05/27 09:07:49;;;;;;;13.60;2.50;;;17.90;58.30;;;;;;5130574;28;20032;-74
2022/05/27 09:10:20;;;;;;;6.20;1.90;;;18.00;57.60;;;;;;5130609;28;20020;-74
2022/05/27 09:12:48;;;;;;;8.45;2.17;;;18.00;57.90;;;;;;5130551;28;20016;-75
2022/05/27 09:15:25;;;;;;;7.53;2.65;;;18.00;57.50;;;;;;5130431;28;20027;-75
2022/05/27 09:18:24;;;;;;;9.68;2.55;;;18.10;56.30;;;;;;5130395;28;20028;-74
2022/05/27 09:21:12;;;;;;;9.57;2.13;;;18.20;55.60;;;;;;5130399;28;20043;-74
2022/05/27 09:24:12;;;;;;;9.35;2.22;;;18.30;57.10;;;;;;5130288;28;20020;-75
2022/05/27 09:26:48;;;;;;;7.07;2.20;;;18.40;56.30;;;;;;5129457;28;20052;-74
2022/05/27 09:29:34;;;;;;;7.43;2.80;;;18.50;56.10;;;;;;5130297;28;20055;-75
2022/05/27 09:32:32;;;;;;;7.22;1.98;;;18.50;53.60;;;;;;5130143;28;20057;-74
2022/05/27 09:35:05;;;;;;;9.23;2.30;;;18.50;55.80;;;;;;5095187;28;20032;-76
2022/05/27 09:37:36;;;;;;;12.73;2.70;;;18.60;56.10;;;;;;5108169;28;20021;-75
2022/05/27 09:40:09;;;;;;;6.97;2.15;;;18.50;55.30;;;;;;5095843;28;20040;-76
2022/05/27 09:43:02;;;;;;;9.65;2.70;;;18.50;54.40;;;;;;5100763;28;20020;-76
2022/05/27 09:45:29;;;;;;;7.93;2.53;;;18.60;53.10;;;;;;5113486;28;20024;-75
2022/05/27 09:48:00;;;;;;;9.55;2.53;;;18.70;55.00;;;;;;5095759;28;20040;-75
2022/05/27 09:50:27;;;;;;;10.30;2.80;;;18.70;54.60;;;;;;5095875;28;20344;-76
2022/05/27 09:52:56;;;;;;;5.70;2.25;;;18.80;53.70;;;;;;5096837;28;20074;-75
2022/05/27 09:55:25;;;;;;;12.88;2.67;;;18.90;53.70;;;;;;5095650;28;20020;-75
2022/05/27 09:58:01;;;;;;;8.57;2.08;;;18.90;52.90;;;;;;5095661;28;20024;-75
2022/05/27 10:00:49;;;;;;;7.90;2.20;;;19.00;54.10;;;;;;5095357;28;20602;-76
2022/05/27 10:03:36;;;;;;;5.88;1.77;;;19.00;51.60;;;;;;5095359;28;20027;-76
2022/05/27 10:06:16;;;;;;;9.48;2.40;;;19.10;52.20;;;;;;5095454;28;20090;-76
2022/05/27 10:08:57;;;;;;;6.13;2.45;;;19.10;50.60;;;;;;5095497;28;20024;-76
2022/05/27 10:11:28;;;;;;;8.23;2.50;;;19.10;52.80;;;;;;5095477;28;20025;-76
2022/05/27 10:14:06;;;;;;;8.23;2.30;;;19.20;52.90;;;;;;5095423;28;20044;-76
2022/05/27 10:16:32;;;;;;;5.35;2.35;;;19.20;51.50;;;;;;5095306;28;20024;-76
2022/05/27 10:19:07;;;;;;;7.43;2.13;;;19.00;49.90;;;;;;5095244;28;20031;-75
2022/05/27 10:21:46;;;;;;;8.77;2.67;;;19.00;51.00;;;;;;5095235;28;20406;-75
2022/05/27 10:24:20;;;;;;;6.30;2.30;;;18.90;50.30;;;;;;5095189;28;20028;-73
2022/05/27 10:27:04;;;;;;;7.05;2.60;;;19.00;50.40;;;;;;5094893;28;20056;-74
2022/05/27 10:29:32;;;;;;;5.93;2.30;;;19.00;50.30;;;;;;5094981;28;20029;-74
2022/05/27 10:32:01;;;;;;;9.82;2.22;;;19.00;51.10;;;;;;5094992;28;20031;-74
2022/05/27 10:34:41;;;;;;;8.05;2.08;;;19.20;50.80;;;;;;5095087;28;20035;-74
2022/05/27 10:37:36;;;;;;;5.93;2.13;;;19.20;48.10;;;;;;5094927;28;20036;-74
2022/05/27 10:40:09;;;;;;;6.43;2.40;;;19.10;48.80;;;;;;5094867;28;20099;-74
2022/05/27 10:42:51;;;;;;;6.38;2.30;;;19.10;48.30;;;;;;5094990;28;20040;-74
2022/05/27 10:45:31;;;;;;;6.30;2.40;;;19.00;46.30;;;;;;5094970;28;20024;-73
2022/05/27 10:48:03;;;;;;;7.53;2.22;;;19.10;47.40;;;;;;5094667;28;20024;-74
2022/05/27 10:50:38;;;;;;;;;;;19.10;47.50;;;;;;5094063;28;20074;-74
2022/05/27 10:53:06;;;;;;;12.98;3.38;;;19.20;48.20;;;;;;5094601;28;19908;-74
2022/05/27 10:55:50;;;;;;;6.45;2.20;;;19.30;49.80;;;;;;5094521;28;20054;-74
2022/05/27 11:04:26;;;;;;;9.15;2.33;;;19.50;47.70;;;;;;5094643;28;20055;-76
2022/05/27 11:07:19;;;;;;;6.78;2.20;;;19.40;47.10;;;;;;5094395;28;20494;-75
2022/05/27 11:09:44;;;;;;;7.43;2.15;;;19.50;47.40;;;;;;5094251;28;20059;-76
2022/05/27 11:15:46;;;;;;;8.50;2.53;;;19.50;47.60;;;;;;5094313;28;20133;-75
2022/05/27 11:18:28;;;;;;;5.80;2.10;;;19.40;46.60;;;;;;5094271;28;20020;-75
2022/05/27 11:21:09;;;;;;;8.48;2.30;;;19.30;46.20;;;;;;5094065;28;20025;-75
2022/05/27 11:23:46;;;;;;;9.98;2.30;;;19.40;46.60;;;;;;5093983;28;20036;-75
2022/05/27 11:26:43;;;;;;;9.57;2.40;;;19.50;46.40;;;;;;5093676;28;20029;-74
2022/05/27 11:29:46;;;;;;;7.90;2.40;;;19.60;46.80;;;;;;5093781;28;20017;-75
2022/05/27 11:32:37;;;;;;;5.88;2.35;;;19.60;44.40;;;;;;5093825;28;20035;-74
2022/05/27 11:35:16;;;;;;;10.73;2.88;;;19.50;45.80;;;;;;5093917;28;20021;-75
2022/05/27 11:38:09;;;;;;;5.35;2.15;;;19.60;44.00;;;;;;5093807;28;20024;-75
2022/05/27 11:41:00;;;;;;;7.70;2.20;;;19.70;45.40;;;;;;5093749;28;20058;-75
2022/05/27 11:43:25;;;;;;;6.97;2.38;;;19.90;44.70;;;;;;5093861;28;20096;-74
2022/05/27 11:46:28;;;;;;;10.90;2.50;;;19.80;43.80;;;;;;5093598;28;20025;-75
2022/05/27 11:48:53;;;;;;;;;;;19.80;45.00;;;;;;5094054;28;20035;-75
2022/05/27 11:51:43;;;;;;;11.38;2.50;;;19.80;45.10;;;;;;5093506;28;19904;-75
2022/05/27 11:54:36;;;;;;;8.60;2.40;;;19.80;45.00;;;;;;5093538;28;20031;-75
2022/05/27 11:57:19;;;;;;;9.07;2.08;;;19.90;43.90;;;;;;5093493;28;20021;-74
2022/05/27 12:00:05;;;;;;;7.53;2.35;;;20.00;44.00;;;;;;5093490;28;20032;-75
2022/05/27 12:02:52;;;;;;;10.77;2.90;;;20.00;42.20;;;;;;5093119;28;20094;-75
2022/05/27 12:05:26;;;;;;;6.07;2.30;;;20.10;45.40;;;;;;5093411;28;20021;-74
2022/05/27 12:08:30;;;;;;;6.32;2.42;;;20.20;42.30;;;;;;5093420;28;20033;-75
2022/05/27 12:11:16;;;;;;;9.38;2.20;;;20.20;40.60;;;;;;5093350;28;20013;-75
2022/05/27 12:14:13;;;;;;;6.85;2.00;;;20.20;42.00;;;;;;5093410;28;20046;-75
2022/05/27 12:16:42;;;;;;;6.50;1.80;;;20.30;39.70;;;;;;5093295;28;20505;-75
2022/05/27 12:19:29;;;;;;;8.60;2.20;;;20.20;39.80;;;;;;5093195;28;20485;-75
2022/05/27 12:22:20;;;;;;;10.32;2.55;;;20.20;42.20;;;;;;5093199;28;20024;-74
2022/05/27 12:24:54;;;;;;;9.95;2.80;;;20.30;43.00;;;;;;5093305;28;20115;-75
2022/05/27 12:27:20;;;;;;;9.75;2.55;;;20.40;44.00;;;;;;5092907;28;20078;-75
2022/05/27 12:29:49;;;;;;;6.90;2.22;;;20.40;44.00;;;;;;5093147;28;20024;-75
2022/05/27 12:32:17;;;;;;;12.77;2.40;;;20.50;45.70;;;;;;5093063;28;20065;-75
2022/05/27 12:34:48;;;;;;;10.43;2.40;;;20.60;45.90;;;;;;5093055;28;20076;-75
2022/05/27 12:37:26;;;;;;;8.20;2.58;;;20.80;45.30;;;;;;5093042;28;20037;-75
2022/05/27 12:40:13;;;;;;;8.35;2.30;;;20.90;44.30;;;;;;5093016;28;20032;-76
2022/05/27 12:42:43;;;;;;;12.38;2.63;;;20.80;43.00;;;;;;5092826;28;20035;-76
2022/05/27 12:45:46;;;;;;;9.88;2.55;;;20.80;43.50;;;;;;5092965;28;20034;-75
2022/05/27 12:48:31;;;;;;;7.18;2.03;;;21.00;43.90;;;;;;5092903;28;20036;-75
2022/05/27 12:51:03;;;;;;;8.18;2.50;;;21.10;41.60;;;;;;5093142;28;20028;-75
2022/05/27 12:53:43;;;;;;;8.27;2.35;;;20.90;41.30;;;;;;5092946;28;20017;-75
2022/05/27 13:02:23;;;;;;;8.55;2.42;;;20.70;41.90;;;;;;5092921;28;20300;-76
2022/05/27 13:04:54;;;;;;;8.57;2.83;;;20.70;41.70;;;;;;5092716;28;20021;-75
2022/05/27 13:07:37;;;;;;;6.50;2.25;;;20.70;42.80;;;;;;5091602;28;20091;-75
2022/05/27 13:10:23;;;;;;;8.13;2.15;;;20.80;43.10;;;;;;5092787;28;20044;-75
2022/05/27 13:12:56;;;;;;;9.25;2.70;;;20.90;42.20;;;;;;5082178;28;20085;-75
2022/05/27 13:15:48;;;;;;;9.48;2.42;;;20.80;40.80;;;;;;5096505;28;20028;-74
2022/05/27 13:18:35;;;;;;;9.85;2.47;;;20.70;40.90;;;;;;5096473;28;20374;-75
2022/05/27 13:21:31;;;;;;;9.00;2.67;;;20.60;41.20;;;;;;5096434;28;20080;-75
2022/05/27 13:24:00;;;;;;;9.77;2.60;;;20.60;41.70;;;;;;5096319;28;20029;-75
2022/05/27 13:26:38;;;;;;;12.20;2.60;;;20.60;42.20;;;;;;5094920;28;20033;-75
2022/05/27 13:29:34;;;;;;;6.07;1.92;;;20.60;41.80;;;;;;5096288;28;20118;-76
2022/05/27 13:32:19;;;;;;;7.05;2.00;;;20.60;40.70;;;;;;5096385;28;20016;-75
2022/05/27 13:34:53;;;;;;;9.65;2.22;;;20.50;40.20;;;;;;5096153;28;20021;-75
2022/05/27 13:37:47;;;;;;;9.63;2.03;;;20.50;41.40;;;;;;5096115;28;20048;-75
2022/05/27 13:40:19;;;;;;;7.82;2.08;;;20.60;39.10;;;;;;5090010;28;20033;-75
2022/05/27 13:42:49;;;;;;;7.68;1.75;;;20.70;41.00;;;;;;5096132;28;20028;-75
2022/05/27 13:45:29;;;;;;;9.07;1.67;;;20.80;40.10;;;;;;5095967;28;20032;-75
2022/05/27 13:48:00;;;;;;;7.90;2.05;;;20.80;39.00;;;;;;5095887;28;20036;-75
2022/05/27 13:50:30;;;;;;;6.68;1.63;;;20.90;40.00;;;;;;5095923;28;20017;-75
2022/05/27 13:52:56;;;;;;;6.50;1.40;;;20.90;39.30;;;;;;5095979;28;20059;-74
2022/05/27 13:55:28;;;;;;;6.25;1.40;;;20.90;40.20;;;;;;5095770;28;20037;-75
2022/05/27 13:57:56;;;;;;;8.98;1.75;;;21.00;39.80;;;;;;5094826;28;20028;-75
2022/05/27 14:00:24;;;;;;;6.97;1.60;;;21.00;38.10;;;;;;5095618;28;20096;-75
2022/05/27 14:02:51;;;;;;;4.00;1.33;;;21.00;39.40;;;;;;5095827;28;20024;-76
2022/05/27 14:05:24;;;;;;;6.78;1.40;;;21.00;37.90;;;;;;5095695;28;20059;-75
2022/05/27 14:07:54;;;;;;;8.05;1.85;;;21.00;38.20;;;;;;5095461;28;20036;-75
2022/05/27 14:10:28;;;;;;;6.47;2.00;;;21.10;39.00;;;;;;5095627;28;20013;-75
2022/05/27 14:12:57;;;;;;;11.45;2.95;;;21.10;38.50;;;;;;5095471;28;20039;-75
2022/05/27 14:15:30;;;;;;;9.20;1.63;;;21.10;38.40;;;;;;5095299;28;20023;-75
2022/05/27 14:17:56;;;;;;;9.60;1.63;;;21.00;39.00;;;;;;5095573;28;20092;-75
2022/05/27 14:22:39;;;;;;;10.10;2.38;;;21.10;39.60;;;;;;5095331;28;20048;-74
2022/05/27 14:23:20;;;;;;;7.13;1.73;;;21.30;40.90;;;;;;5095238;28;20036;-75
2022/05/27 14:25:47;;;;;;;8.30;1.88;;;21.30;38.80;;;;;;5095064;28;20026;-75
2022/05/27 14:28:26;;;;;;;7.28;1.67;;;21.20;38.00;;;;;;5094887;28;20045;-75
2022/05/27 14:30:55;;;;;;;7.65;1.92;;;21.20;37.40;;;;;;5094226;28;20111;-75
2022/05/27 14:33:28;;;;;;;5.18;1.42;;;21.00;37.90;;;;;;5095020;28;20024;-75
2022/05/27 14:35:55;;;;;;;7.93;1.63;;;21.00;38.60;;;;;;5095029;28;20051;-76
2022/05/27 14:38:31;;;;;;;6.65;1.58;;;21.00;38.30;;;;;;5094908;28;20059;-75
2022/05/27 14:40:57;;;;;;;5.75;1.30;;;21.10;38.30;;;;;;5095092;28;20179;-75